Terminal Aerodrome Forecast
Issued by NWS

Home | Current Version | Previous Version | Text Only | Print | Product List | Glossary On
Versions: 1 2 3 4 5 6 7 8 9 10 11 12 13 14 15 16 17 18 19 20 21 22 23 24 25 26 27 28 29 30 31 32 33 34 35 36 37 38 39 40 41
000
FTUS43 KMKX 291430 AAA
TAFENW
TAF AMD
KENW 291430Z 2915/3012 20010KT P6SM SCT050 BKN120
     FM291800 17011KT P6SM VCTS BKN050CB
     FM300300 19006KT P6SM VCTS SCT050 BKN090CB
     FM300800 25006KT P6SM SHRA OVC025
     FM300900 26005KT 3SM SHRA BR OVC015
     FM301100 34007KT 3SM SHRA BR OVC008=

USA.gov is the U.S. government's official web portal to all federal, state and local government web resources and services.